Riceboro, Georgia
Current Conditions -  °F | °C
As of 10:58 AM on Friday 28 Nov 2014 (Local Time) from KLHW Reporting Station
Clear Clear  
Wind Chill: 42°   Ceiling: Unl
Heat Index: 45°   Visibility: 10mi
Dew Point: 28°   Wind: 6mph
Humidity: 50%   Direction: 20°NNE
Pressure: 30.4"   Gusts: NA
Location:  31.74°N, 81.43°W
Report Text: KLHW 281558Z AUTO 02005KT 10SM CLR 07/M02 A3040 RMK AO2 SLP298 T00741024
Loading
Personal Weather Stations






























Interactive Weather Map New forecast layout! Learn more

10-Day Weather Forecast

Advertisements
Track Severe Weather on mobile